HKNW

Nairobi Wilson Airport

Nairobi, Kenya
METAR HKNW 240300Z 02005KT 9999 SCT016 13/12 Q1021
Observed Flight Rules
Sep-24 @ 03:00 UTC (47 minutes ago) Visual Flight Rules
Wind Visibility Clouds
20° at 5 knots 10,000+ meters
  • Scattered at 1,600' AGL
Temperatures Readings
Current 13°C / 55°F
Dewpoint 12°C / 54°F
Humidity 94%
Altimeter 30.15" Hg
Pressure 1021 hPa
Elevation 1679
METAR HKNW 240300Z 02005KT 9999 SCT016 13/12 Q1021
Observed Flight Rules
Sep-24 @ 03:00 UTC
(47 minutes ago)
VFR
Wind Visibility
20° at 5 knots 10,000+ meters
Clouds
  • Scattered at 1,600' AGL
Temperature Dewpoint
13°C / 55°F 12°C / 54°F
Humidity Altimeter Pressure
94% 30.15" Hg 1021 hPa